Time;durP1;ratioP1;P1;durP2;ratioP2;P2;SDS_P1;SDS_P2;PMS_P1;PMS_P2;Temp;Humidity;BMP_temperature;BMP_pressure;BME280_temperature;BME280_humidity;BME280_pressure;Samples;Min_cycle;Max_cycle;Signal;HPM_P1;HPM_P2
2022/06/24 00:01:39;;;;;;;2.00;1.73;;;21.90;62.30;;;;;;4322239;28;10000216;-73
2022/06/24 00:04:05;;;;;;;1.95;1.70;;;22.00;61.30;;;;;;5020363;28;20028;-72
2022/06/24 00:06:49;;;;;;;3.38;1.70;;;22.00;61.80;;;;;;5018493;28;20033;-72
2022/06/24 00:09:16;;;;;;;2.70;1.58;;;22.00;62.50;;;;;;5014943;28;20036;-72
2022/06/24 00:11:42;;;;;;;1.88;1.60;;;22.00;61.70;;;;;;5013829;28;20612;-73
2022/06/24 00:14:13;;;;;;;2.72;1.80;;;22.00;61.30;;;;;;5018360;28;20022;-73
2022/06/24 00:16:56;;;;;;;3.38;1.73;;;22.00;60.00;;;;;;5015499;28;20115;-72
2022/06/24 00:19:24;;;;;;;4.03;1.80;;;22.10;60.50;;;;;;5018781;28;20041;-72
2022/06/24 00:22:04;;;;;;;2.40;1.80;;;22.10;60.80;;;;;;5020616;28;20037;-72
2022/06/24 00:24:32;;;;;;;5.00;1.80;;;22.10;60.70;;;;;;5014617;28;20022;-72
2022/06/24 00:26:57;;;;;;;4.47;1.80;;;22.10;61.30;;;;;;5019172;28;20084;-72
2022/06/24 00:29:29;;;;;;;3.30;1.80;;;22.10;60.70;;;;;;5021119;28;20021;-72
2022/06/24 00:32:06;;;;;;;6.50;1.92;;;22.10;62.00;;;;;;5018487;28;20080;-72
2022/06/24 00:34:33;;;;;;;2.50;1.75;;;22.10;62.00;;;;;;5011967;28;20178;-72
2022/06/24 00:37:23;;;;;;;2.45;1.80;;;22.10;62.00;;;;;;5020309;28;20132;-72
2022/06/24 00:39:50;;;;;;;3.40;2.03;;;22.10;61.90;;;;;;5023577;28;20371;-72
2022/06/24 00:42:18;;;;;;;1.77;1.42;;;22.10;60.90;;;;;;5024570;28;20030;-72
2022/06/24 00:44:49;;;;;;;2.92;1.70;;;22.20;61.70;;;;;;5024073;28;20354;-72
2022/06/24 00:47:16;;;;;;;1.63;1.52;;;22.10;62.30;;;;;;5020637;28;20030;-72
2022/06/24 00:49:45;;;;;;;2.38;1.83;;;22.10;63.00;;;;;;5006174;28;20033;-72
2022/06/24 00:52:11;;;;;;;1.98;1.77;;;22.10;63.40;;;;;;5024040;28;20310;-72
2022/06/24 00:54:37;;;;;;;3.72;1.90;;;22.10;62.90;;;;;;5027207;28;20037;-72
2022/06/24 00:57:03;;;;;;;2.20;1.70;;;22.10;63.20;;;;;;5017900;28;20089;-72
2022/06/24 00:59:34;;;;;;;1.83;1.67;;;22.10;62.80;;;;;;5013779;28;20033;-72
2022/06/24 01:02:05;;;;;;;2.08;1.73;;;22.10;61.80;;;;;;5020527;28;20048;-72
2022/06/24 01:04:31;;;;;;;2.15;1.90;;;22.10;63.00;;;;;;5018719;28;20478;-72
2022/06/24 01:06:57;;;;;;;2.25;1.77;;;22.10;62.80;;;;;;5025348;28;20064;-72
2022/06/24 01:09:23;;;;;;;3.22;1.77;;;22.10;60.90;;;;;;5018252;28;20568;-72
2022/06/24 01:11:48;;;;;;;2.83;1.77;;;22.00;61.60;;;;;;5017037;28;20033;-72
2022/06/24 01:14:14;;;;;;;2.58;1.88;;;22.00;62.40;;;;;;5023416;28;20026;-73
2022/06/24 01:16:40;;;;;;;1.80;1.70;;;22.00;62.20;;;;;;5019598;28;20370;-72
2022/06/24 01:19:07;;;;;;;2.17;1.90;;;22.00;62.20;;;;;;5024164;28;20650;-72
2022/06/24 01:21:38;;;;;;;3.05;2.00;;;22.10;62.20;;;;;;5021488;28;20029;-72
2022/06/24 01:24:03;;;;;;;5.25;2.00;;;22.10;62.20;;;;;;5025395;28;20021;-72
2022/06/24 01:26:29;;;;;;;4.30;1.92;;;22.10;61.80;;;;;;5021871;28;20025;-72
2022/06/24 01:28:54;;;;;;;6.18;2.20;;;22.20;61.40;;;;;;5023956;28;20319;-73
2022/06/24 01:31:20;;;;;;;5.43;2.13;;;22.20;61.80;;;;;;5022479;28;20025;-72
2022/06/24 01:33:45;;;;;;;3.47;2.20;;;22.20;61.30;;;;;;5016964;28;20042;-72
2022/06/24 01:36:11;;;;;;;5.25;2.30;;;22.20;62.50;;;;;;5025864;28;20117;-72
2022/06/24 01:38:37;;;;;;;2.60;2.30;;;22.20;62.40;;;;;;5019991;28;20014;-73
2022/06/24 01:41:02;;;;;;;2.67;2.20;;;22.20;61.90;;;;;;5020725;28;20087;-72
2022/06/24 01:43:28;;;;;;;4.75;2.38;;;22.20;62.00;;;;;;5021021;28;20029;-72
2022/06/24 01:45:53;;;;;;;3.58;2.58;;;22.20;64.30;;;;;;5026005;28;20110;-72
2022/06/24 01:48:19;;;;;;;3.55;2.20;;;22.20;64.20;;;;;;5024019;28;20041;-72
2022/06/24 01:50:44;;;;;;;3.45;1.83;;;22.20;64.10;;;;;;5024983;28;20029;-72
2022/06/24 01:53:10;;;;;;;3.70;2.38;;;22.10;63.80;;;;;;5023581;28;20127;-72
2022/06/24 01:55:35;;;;;;;2.67;2.08;;;22.10;64.80;;;;;;5019694;28;20274;-72
2022/06/24 01:58:01;;;;;;;6.55;2.40;;;22.00;66.10;;;;;;5018974;28;20033;-72
2022/06/24 02:00:27;;;;;;;5.40;2.10;;;21.90;66.90;;;;;;5021357;28;20068;-72
2022/06/24 02:02:52;;;;;;;4.80;2.22;;;21.80;67.60;;;;;;5024033;28;20103;-72
2022/06/24 02:05:19;;;;;;;3.25;2.20;;;21.70;67.90;;;;;;5020913;28;20389;-72
2022/06/24 02:07:45;;;;;;;3.17;2.42;;;21.70;68.90;;;;;;5018773;28;20347;-72
2022/06/24 02:13:26;;;;;;;2.58;2.20;;;21.50;69.90;;;;;;4979988;28;20490;-72
2022/06/24 02:16:03;;;;;;;6.53;2.60;;;21.40;69.90;;;;;;5016368;28;20029;-72
2022/06/24 02:18:30;;;;;;;4.88;2.40;;;21.40;71.00;;;;;;5016944;28;20112;-72
2022/06/24 02:20:56;;;;;;;4.03;2.50;;;21.40;71.70;;;;;;5018173;28;20271;-72
2022/06/24 02:23:22;;;;;;;4.25;2.47;;;21.40;72.40;;;;;;5016530;28;20084;-72
2022/06/24 02:25:49;;;;;;;4.68;2.60;;;21.40;73.00;;;;;;5023313;28;20160;-73
2022/06/24 02:28:15;;;;;;;3.50;2.60;;;21.40;74.10;;;;;;5022163;28;20124;-72
2022/06/24 02:30:42;;;;;;;4.60;2.70;;;21.20;74.30;;;;;;5017515;28;20077;-73
2022/06/24 02:33:08;;;;;;;8.30;2.78;;;21.20;74.90;;;;;;5019955;28;20041;-72
2022/06/24 02:35:34;;;;;;;7.32;3.28;;;21.10;76.00;;;;;;5022543;28;20379;-72
2022/06/24 02:38:00;;;;;;;52.53;4.97;;;21.10;77.30;;;;;;5020419;28;20095;-72
2022/06/24 02:43:19;;;;;;;21.33;3.88;;;20.90;79.30;;;;;;5017219;28;20099;-73
2022/06/24 02:45:57;;;;;;;21.45;3.95;;;20.80;80.10;;;;;;5020581;28;20034;-72
2022/06/24 02:48:22;;;;;;;8.60;3.33;;;20.80;80.70;;;;;;5012321;28;20112;-73
2022/06/24 02:50:59;;;;;;;9.63;3.58;;;20.70;81.00;;;;;;5022346;28;20377;-72
2022/06/24 02:53:26;;;;;;;7.15;3.05;;;20.60;81.80;;;;;;5015218;28;20025;-72
2022/06/24 02:55:58;;;;;;;3.83;3.20;;;20.60;82.80;;;;;;5018097;28;20032;-72
2022/06/24 02:58:25;;;;;;;5.68;3.15;;;20.60;83.80;;;;;;5017056;28;20628;-72
2022/06/24 03:00:51;;;;;;;7.25;3.92;;;20.50;84.70;;;;;;5019930;28;20113;-72
2022/06/24 03:03:19;;;;;;;7.72;3.75;;;20.50;86.30;;;;;;5024027;28;20033;-72
2022/06/24 03:05:46;;;;;;;7.78;3.40;;;20.50;88.00;;;;;;5016960;28;20060;-72
2022/06/24 03:08:13;;;;;;;8.20;3.50;;;20.40;90.20;;;;;;5021120;28;20505;-72
2022/06/24 03:10:39;;;;;;;4.75;3.15;;;20.40;91.80;;;;;;5016208;28;20084;-72
2022/06/24 03:13:05;;;;;;;4.82;3.20;;;20.40;93.50;;;;;;5023709;28;20057;-72
2022/06/24 03:15:32;;;;;;;5.88;3.60;;;20.30;95.50;;;;;;5010878;28;20038;-72
2022/06/24 03:17:58;;;;;;;10.38;3.72;;;20.30;97.40;;;;;;5022352;28;20041;-72
2022/06/24 03:20:24;;;;;;;7.85;3.50;;;20.30;99.50;;;;;;5020849;28;20040;-72
2022/06/24 03:22:50;;;;;;;7.28;3.55;;;20.30;99.90;;;;;;5023585;28;20048;-72
2022/06/24 03:25:16;;;;;;;10.98;3.80;;;20.30;99.90;;;;;;5019832;28;20045;-72
2022/06/24 03:27:42;;;;;;;7.72;3.50;;;20.20;99.90;;;;;;5020814;28;20082;-72
2022/06/24 03:30:09;;;;;;;10.10;3.60;;;20.20;99.90;;;;;;5016663;28;20029;-72
2022/06/24 03:32:36;;;;;;;10.00;3.50;;;20.20;99.90;;;;;;5013741;28;20022;-72
2022/06/24 03:35:02;;;;;;;10.55;3.70;;;20.30;99.90;;;;;;5017461;28;20072;-72
2022/06/24 03:37:31;;;;;;;9.13;3.45;;;20.30;99.90;;;;;;5011955;28;20152;-72
2022/06/24 03:39:57;;;;;;;10.20;3.22;;;20.30;99.90;;;;;;5022912;28;20033;-72
2022/06/24 03:42:22;;;;;;;11.15;3.40;;;20.40;99.90;;;;;;5020220;28;20548;-73
2022/06/24 03:44:48;;;;;;;17.45;3.80;;;20.40;99.90;;;;;;5017349;28;20217;-72
2022/06/24 03:47:14;;;;;;;9.18;2.92;;;20.50;99.90;;;;;;5022096;28;20039;-72
2022/06/24 03:49:40;;;;;;;11.13;2.95;;;20.50;99.90;;;;;;5024965;28;20485;-73
2022/06/24 03:52:06;;;;;;;10.18;2.53;;;20.50;99.90;;;;;;5020935;28;20025;-72
2022/06/24 03:54:32;;;;;;;9.70;2.83;;;20.60;99.90;;;;;;5018155;28;20389;-72
2022/06/24 03:56:58;;;;;;;10.65;3.00;;;20.60;99.90;;;;;;5015982;28;20662;-73
2022/06/24 03:59:23;;;;;;;9.45;2.70;;;20.60;99.90;;;;;;5021951;28;20453;-73
2022/06/24 04:01:49;;;;;;;7.38;2.50;;;20.70;99.90;;;;;;5020479;28;20032;-72
2022/06/24 04:04:14;;;;;;;10.38;2.80;;;20.70;99.90;;;;;;5020491;28;20061;-73
2022/06/24 04:06:40;;;;;;;7.75;2.63;;;20.70;99.90;;;;;;5017543;28;20092;-72
2022/06/24 04:09:06;;;;;;;17.85;3.10;;;20.80;99.90;;;;;;5019379;28;20030;-72
2022/06/24 04:11:32;;;;;;;9.35;2.88;;;20.80;99.90;;;;;;5012000;28;20021;-72
2022/06/24 04:13:59;;;;;;;9.75;2.95;;;21.10;99.90;;;;;;5014443;28;20527;-72
2022/06/24 04:16:25;;;;;;;11.32;2.60;;;22.20;99.90;;;;;;5021587;28;20490;-72
2022/06/24 04:18:51;;;;;;;4.88;2.30;;;23.70;99.90;;;;;;5014223;28;20029;-72
2022/06/24 04:21:17;;;;;;;12.10;2.78;;;25.10;99.90;;;;;;5027333;28;20053;-73
2022/06/24 04:23:44;;;;;;;8.70;2.83;;;26.00;99.90;;;;;;5016362;28;20041;-72
2022/06/24 04:26:10;;;;;;;8.18;2.47;;;26.50;99.90;;;;;;5018657;28;20041;-72
2022/06/24 04:28:36;;;;;;;13.20;2.70;;;26.50;99.90;;;;;;5023165;28;20060;-72
2022/06/24 04:31:02;;;;;;;12.15;2.28;;;26.00;99.90;;;;;;5013405;28;20430;-72
2022/06/24 04:33:28;;;;;;;10.73;2.33;;;25.40;99.90;;;;;;5018518;28;20068;-72
2022/06/24 04:35:54;;;;;;;7.82;2.33;;;24.70;99.90;;;;;;5016363;28;20113;-73
2022/06/24 04:38:20;;;;;;;7.28;2.40;;;24.10;99.90;;;;;;5023232;28;20040;-73
2022/06/24 04:40:45;;;;;;;9.80;2.38;;;23.60;99.90;;;;;;5018580;28;20112;-73
2022/06/24 04:43:12;;;;;;;6.22;2.55;;;23.10;99.90;;;;;;5022846;28;20501;-73
2022/06/24 04:45:38;;;;;;;11.57;2.60;;;22.70;99.90;;;;;;5021928;28;20098;-72
2022/06/24 04:48:04;;;;;;;8.07;2.35;;;22.40;99.90;;;;;;5017500;28;20021;-72
2022/06/24 04:50:30;;;;;;;7.97;2.63;;;22.10;99.90;;;;;;5020173;28;20103;-72
2022/06/24 04:52:55;;;;;;;9.93;2.58;;;21.90;99.90;;;;;;5017720;28;20041;-73
2022/06/24 04:55:21;;;;;;;7.65;2.15;;;21.70;99.90;;;;;;5018341;28;20064;-72
2022/06/24 04:57:47;;;;;;;6.65;2.08;;;21.70;99.90;;;;;;5021312;28;20036;-73
2022/06/24 05:00:13;;;;;;;8.70;2.30;;;21.60;99.90;;;;;;5015103;28;20028;-73
2022/06/24 05:02:39;;;;;;;9.55;1.80;;;21.60;99.90;;;;;;5008845;28;20030;-73
2022/06/24 05:05:05;;;;;;;10.27;2.13;;;21.90;99.90;;;;;;5014237;28;20087;-73
2022/06/24 05:07:31;;;;;;;8.02;1.98;;;22.10;99.90;;;;;;5015856;28;20029;-73
2022/06/24 05:09:57;;;;;;;9.02;1.63;;;22.40;99.90;;;;;;5016193;28;20029;-73
2022/06/24 05:12:23;;;;;;;7.57;1.75;;;22.50;99.90;;;;;;5019121;28;20026;-73
2022/06/24 05:14:48;;;;;;;6.65;2.00;;;22.50;99.90;;;;;;5014996;28;20148;-73
2022/06/24 05:17:14;;;;;;;9.05;2.03;;;22.40;99.90;;;;;;5018747;28;20509;-73
2022/06/24 05:19:40;;;;;;;10.70;2.05;;;22.30;99.90;;;;;;5018155;28;20022;-73
2022/06/24 05:22:05;;;;;;;10.30;1.85;;;22.10;99.90;;;;;;5019589;28;20025;-73
2022/06/24 05:24:31;;;;;;;6.50;1.60;;;21.90;99.90;;;;;;5021233;28;20111;-73
2022/06/24 05:26:57;;;;;;;6.93;1.88;;;21.70;99.90;;;;;;5022490;28;20029;-73
2022/06/24 05:29:22;;;;;;;8.25;1.80;;;21.50;99.90;;;;;;5022981;28;20040;-73
2022/06/24 05:31:48;;;;;;;7.60;1.75;;;21.40;99.90;;;;;;5020460;28;20040;-73
2022/06/24 05:34:14;;;;;;;6.40;1.80;;;21.30;99.90;;;;;;5024209;28;20163;-73
2022/06/24 05:36:40;;;;;;;7.25;1.85;;;21.20;99.90;;;;;;5020979;28;20052;-73
2022/06/24 05:39:06;;;;;;;8.05;1.98;;;21.20;99.90;;;;;;5022698;28;20095;-73
2022/06/24 05:41:33;;;;;;;7.03;2.40;;;21.10;99.90;;;;;;5023896;28;20030;-73
2022/06/24 05:44:00;;;;;;;7.22;2.05;;;21.10;99.90;;;;;;5023420;28;20030;-73
2022/06/24 05:46:26;;;;;;;5.28;1.70;;;21.10;99.90;;;;;;5027754;28;20061;-72
2022/06/24 05:48:52;;;;;;;5.40;1.85;;;21.10;99.90;;;;;;5016153;28;20025;-73
2022/06/24 05:51:17;;;;;;;5.38;1.92;;;21.20;99.90;;;;;;5014393;28;20030;-72
2022/06/24 05:56:30;;;;;;;4.90;2.00;;;21.20;99.90;;;;;;5017589;28;20040;-73
2022/06/24 05:58:57;;;;;;;6.50;1.80;;;21.20;99.90;;;;;;5026070;28;20021;-73
2022/06/24 06:01:23;;;;;;;6.85;2.08;;;21.20;99.90;;;;;;5026664;28;20040;-73
2022/06/24 06:03:49;;;;;;;7.50;1.60;;;21.30;99.90;;;;;;5025178;28;20030;-74
2022/06/24 06:06:15;;;;;;;5.57;1.90;;;21.40;99.90;;;;;;5029189;28;20033;-73
2022/06/24 06:08:41;;;;;;;7.78;1.80;;;21.50;99.90;;;;;;5024468;28;20037;-73
2022/06/24 06:11:15;;;;;;;7.88;1.95;;;21.50;99.90;;;;;;5016369;28;20025;-73
2022/06/24 06:13:42;;;;;;;4.97;1.88;;;21.60;99.90;;;;;;5021179;28;20041;-73
2022/06/24 06:16:08;;;;;;;9.55;1.80;;;21.50;99.90;;;;;;5026156;28;20060;-73
2022/06/24 06:18:34;;;;;;;7.90;1.80;;;21.60;99.90;;;;;;5028437;28;20164;-73
2022/06/24 06:21:01;;;;;;;6.30;1.48;;;21.50;99.90;;;;;;5025264;28;20025;-73
2022/06/24 06:23:28;;;;;;;5.32;1.67;;;21.50;99.90;;;;;;5025907;28;20516;-73
2022/06/24 06:25:54;;;;;;;6.25;1.70;;;21.50;99.90;;;;;;5019662;28;20021;-73
2022/06/24 06:28:20;;;;;;;6.30;1.60;;;21.50;99.90;;;;;;5023767;28;20029;-73
2022/06/24 06:30:46;;;;;;;8.90;1.83;;;21.50;99.90;;;;;;5018434;28;20029;-74
2022/06/24 06:33:11;;;;;;;6.38;1.90;;;21.40;99.90;;;;;;5022447;28;20040;-73
2022/06/24 06:35:37;;;;;;;5.60;1.70;;;21.50;99.90;;;;;;5025314;28;20049;-73
2022/06/24 06:38:02;;;;;;;5.10;1.50;;;21.40;99.90;;;;;;5018241;28;20489;-73
2022/06/24 06:40:28;;;;;;;7.10;1.85;;;21.50;99.90;;;;;;5018386;28;20025;-74
2022/06/24 06:42:55;;;;;;;9.32;1.70;;;21.50;99.90;;;;;;5018644;28;20036;-73
2022/06/24 06:45:22;;;;;;;10.05;2.10;;;21.50;99.90;;;;;;5019123;28;20493;-73
2022/06/24 06:47:47;;;;;;;6.43;1.48;;;21.60;99.90;;;;;;5022671;28;20037;-73
2022/06/24 06:50:13;;;;;;;6.30;1.80;;;21.70;99.90;;;;;;5019571;28;20048;-73
2022/06/24 06:52:40;;;;;;;5.80;1.70;;;21.70;99.90;;;;;;5016725;28;20486;-73
2022/06/24 06:55:05;;;;;;;9.45;2.22;;;21.70;99.90;;;;;;5024468;28;20061;-73
2022/06/24 06:57:31;;;;;;;6.88;1.83;;;21.80;99.90;;;;;;5015614;28;20317;-73
2022/06/24 06:59:57;;;;;;;4.97;1.55;;;21.80;99.90;;;;;;5025955;28;20033;-72
2022/06/24 07:02:23;;;;;;;8.52;1.65;;;21.80;99.90;;;;;;5025352;28;20277;-73
2022/06/24 07:04:49;;;;;;;6.53;1.75;;;21.80;99.90;;;;;;5021144;28;20025;-73
2022/06/24 07:07:14;;;;;;;7.38;1.90;;;21.90;99.90;;;;;;5025914;28;20021;-73
2022/06/24 07:09:40;;;;;;;5.82;1.67;;;22.10;99.90;;;;;;5018341;28;20036;-73
2022/06/24 07:12:06;;;;;;;7.50;1.73;;;22.10;99.90;;;;;;5025263;28;20468;-73
2022/06/24 07:14:32;;;;;;;11.98;1.83;;;22.20;99.90;;;;;;5027998;28;20125;-73
2022/06/24 07:16:57;;;;;;;6.22;1.70;;;22.20;99.90;;;;;;5021862;28;20116;-73
2022/06/24 07:19:23;;;;;;;6.63;1.77;;;22.30;99.90;;;;;;5016806;28;20064;-73
2022/06/24 07:21:49;;;;;;;5.20;1.60;;;22.20;99.90;;;;;;5024015;28;20072;-73
2022/06/24 07:24:15;;;;;;;5.82;1.58;;;22.10;99.90;;;;;;5026651;28;20397;-73
2022/06/24 07:26:41;;;;;;;5.78;1.80;;;22.10;99.90;;;;;;5024080;28;20010;-73
2022/06/24 07:29:06;;;;;;;6.05;1.40;;;22.10;99.90;;;;;;5015742;28;20106;-73
2022/06/24 07:31:32;;;;;;;7.90;1.60;;;22.00;99.90;;;;;;5025176;28;20036;-73
2022/06/24 07:33:58;;;;;;;6.47;1.48;;;22.00;99.90;;;;;;5026685;28;20041;-73
2022/06/24 07:36:24;;;;;;;7.43;1.70;;;22.00;99.90;;;;;;5019298;28;20445;-73
2022/06/24 07:38:50;;;;;;;5.85;1.75;;;22.10;99.90;;;;;;5010692;28;20030;-73
2022/06/24 07:41:15;;;;;;;4.88;1.50;;;22.10;99.90;;;;;;5026270;28;20025;-73
2022/06/24 07:43:41;;;;;;;5.20;1.60;;;22.20;99.90;;;;;;5026438;28;20393;-73
2022/06/24 07:46:08;;;;;;;4.20;1.10;;;22.20;99.90;;;;;;5012595;28;20092;-73
2022/06/24 07:48:35;;;;;;;6.05;1.55;;;22.30;99.90;;;;;;5015938;28;20302;-73
2022/06/24 07:51:15;;;;;;;3.83;1.17;;;22.30;99.90;;;;;;5024865;28;20090;-72
2022/06/24 07:53:43;;;;;;;3.70;1.13;;;22.40;99.90;;;;;;5024270;28;20397;-73
2022/06/24 07:58:53;;;;;;;5.53;1.20;;;22.80;99.90;;;;;;5020228;28;20084;-72
2022/06/24 08:01:19;;;;;;;4.30;1.10;;;23.00;99.90;;;;;;5017081;28;20040;-73
2022/06/24 08:03:45;;;;;;;4.45;1.20;;;23.30;99.90;;;;;;5015352;28;20385;-72
2022/06/24 08:06:11;;;;;;;4.78;1.00;;;23.40;99.90;;;;;;5021673;28;20025;-73
2022/06/24 08:08:37;;;;;;;3.63;0.90;;;23.50;99.90;;;;;;5017381;28;20021;-73
2022/06/24 08:11:02;;;;;;;5.43;0.98;;;23.60;99.90;;;;;;5023843;28;20025;-72
2022/06/24 08:13:30;;;;;;;3.35;1.00;;;23.70;99.90;;;;;;5024900;28;20075;-72
2022/06/24 08:15:56;;;;;;;3.45;0.80;;;23.70;99.90;;;;;;5012982;28;20042;-72
2022/06/24 08:18:21;;;;;;;4.43;1.20;;;23.70;99.90;;;;;;5020748;28;20033;-73
2022/06/24 08:20:47;;;;;;;4.32;1.20;;;23.70;99.90;;;;;;5012639;28;20367;-73
2022/06/24 08:23:13;;;;;;;6.07;1.02;;;23.60;99.90;;;;;;5021642;28;20030;-73
2022/06/24 08:25:38;;;;;;;2.60;1.05;;;23.40;99.90;;;;;;5017823;28;20294;-73
2022/06/24 08:28:04;;;;;;;4.20;1.15;;;23.30;99.90;;;;;;5024868;28;20386;-73
2022/06/24 08:30:30;;;;;;;7.13;1.27;;;23.00;99.90;;;;;;5019051;28;20040;-72
2022/06/24 08:32:55;;;;;;;4.13;1.30;;;23.00;99.90;;;;;;5013042;28;20026;-73
2022/06/24 08:35:21;;;;;;;4.45;1.50;;;22.90;99.90;;;;;;5006226;28;20441;-73
2022/06/24 08:37:47;;;;;;;4.03;1.63;;;22.90;99.90;;;;;;5007131;28;20125;-73
2022/06/24 08:40:13;;;;;;;4.38;1.58;;;22.90;99.90;;;;;;5006647;28;20482;-73
2022/06/24 08:42:39;;;;;;;5.00;1.40;;;22.80;99.90;;;;;;5007039;28;20512;-73
2022/06/24 08:45:05;;;;;;;5.00;1.40;;;22.80;99.90;;;;;;5006452;28;20488;-73
2022/06/24 08:47:31;;;;;;;5.50;1.30;;;22.80;99.90;;;;;;5022093;28;20029;-73
2022/06/24 08:49:57;;;;;;;5.10;1.42;;;22.90;99.90;;;;;;5024456;28;20095;-73
2022/06/24 08:52:22;;;;;;;5.78;1.40;;;23.10;99.90;;;;;;5015747;28;20084;-73
2022/06/24 08:54:49;;;;;;;6.13;1.58;;;23.20;99.90;;;;;;5019916;28;20029;-73
2022/06/24 08:57:16;;;;;;;7.45;1.40;;;23.20;99.90;;;;;;5026182;28;20036;-73
2022/06/24 08:59:45;;;;;;;5.13;1.40;;;23.20;99.90;;;;;;5021264;28;20046;-72
2022/06/24 09:02:14;;;;;;;7.97;1.65;;;23.10;99.90;;;;;;5010196;28;20049;-73
2022/06/24 09:04:43;;;;;;;5.10;1.52;;;23.00;99.90;;;;;;5025287;28;20021;-73
2022/06/24 09:07:23;;;;;;;5.43;1.63;;;22.90;99.90;;;;;;5016833;28;20303;-73
2022/06/24 09:09:59;;;;;;;6.32;1.80;;;22.80;99.90;;;;;;5011635;28;20018;-73
2022/06/24 09:12:28;;;;;;;4.00;1.30;;;22.80;99.90;;;;;;5029635;28;20048;-72
2022/06/24 09:14:53;;;;;;;6.43;1.58;;;22.80;99.90;;;;;;5029648;28;20060;-72
2022/06/24 09:17:30;;;;;;;4.18;1.45;;;22.90;99.90;;;;;;5019400;28;20018;-73
2022/06/24 09:20:07;;;;;;;3.35;1.40;;;22.90;99.90;;;;;;5027023;28;20561;-72
2022/06/24 09:22:33;;;;;;;6.55;1.52;;;23.00;99.90;;;;;;5010399;28;20030;-72
2022/06/24 09:25:00;;;;;;;2.72;1.45;;;23.20;99.90;;;;;;5010286;28;20548;-73
2022/06/24 09:27:26;;;;;;;7.10;1.60;;;23.30;99.90;;;;;;5010378;28;20601;-72
2022/06/24 09:29:52;;;;;;;9.38;1.50;;;23.40;99.90;;;;;;5014079;28;20029;-73
2022/06/24 09:32:18;;;;;;;16.13;1.60;;;23.50;99.90;;;;;;5025544;28;20032;-73
2022/06/24 09:35:07;;;;;;;8.15;1.83;;;23.60;99.90;;;;;;5021968;28;20048;-73
2022/06/24 09:37:35;;;;;;;21.92;1.63;;;23.70;99.90;;;;;;5022861;28;20512;-73
2022/06/24 09:40:20;;;;;;;8.50;1.50;;;23.80;99.90;;;;;;5020537;28;20148;-73
2022/06/24 09:42:53;;;;;;;5.13;1.27;;;24.10;99.90;;;;;;5022223;28;20028;-73
2022/06/24 09:45:20;;;;;;;4.75;1.10;;;24.30;99.90;;;;;;5020862;28;20033;-73
2022/06/24 09:47:49;;;;;;;1.48;1.10;;;24.50;99.90;;;;;;5009908;28;20049;-73
2022/06/24 09:50:17;;;;;;;3.78;1.30;;;24.80;99.90;;;;;;5023836;28;20033;-73
2022/06/24 09:52:43;;;;;;;7.88;1.70;;;24.90;99.90;;;;;;5009861;28;20096;-73
2022/06/24 09:55:10;;;;;;;4.47;1.50;;;25.00;99.90;;;;;;5010223;28;20593;-73
2022/06/24 09:57:36;;;;;;;4.78;1.30;;;25.00;99.90;;;;;;5009392;28;20517;-73
2022/06/24 10:02:51;;;;;;;3.97;1.52;;;24.90;99.90;;;;;;5023936;28;20100;-73
2022/06/24 10:05:18;;;;;;;4.15;1.60;;;24.90;99.90;;;;;;5028887;28;20053;-73
2022/06/24 10:07:47;;;;;;;5.15;1.55;;;24.90;99.90;;;;;;5028030;28;20555;-73
2022/06/24 10:10:15;;;;;;;6.72;1.40;;;25.00;99.90;;;;;;5020104;28;20036;-73
2022/06/24 10:12:48;;;;;;;5.25;1.70;;;25.10;99.90;;;;;;5010103;28;20057;-72
2022/06/24 10:15:14;;;;;;;3.67;1.60;;;25.20;99.90;;;;;;5020994;28;20025;-73
2022/06/24 10:17:43;;;;;;;5.90;1.42;;;25.30;99.90;;;;;;5026681;28;20029;-74
2022/06/24 10:20:11;;;;;;;7.80;1.42;;;25.30;99.90;;;;;;5022003;28;20029;-74
2022/06/24 10:22:42;;;;;;;3.50;1.52;;;25.40;99.90;;;;;;5026336;28;20033;-73
2022/06/24 10:25:08;;;;;;;7.28;1.50;;;;;;;;;;5025778;28;20113;-73
2022/06/24 10:27:59;;;;;;;4.78;1.35;;;25.40;99.90;;;;;;5026666;28;20017;-73
2022/06/24 10:30:39;;;;;;;7.00;1.30;;;25.50;99.90;;;;;;5016405;28;20033;-72
2022/06/24 10:33:12;;;;;;;4.55;1.30;;;;;;;;;;5019440;28;20033;-72
2022/06/24 10:36:11;;;;;;;3.05;1.20;;;;;;;;;;5024690;28;20113;-72
2022/06/24 10:38:40;;;;;;;5.97;1.60;;;;;;;;;;4975194;28;20159;-73
2022/06/24 10:41:08;;;;;;;4.03;1.23;;;;;;;;;;5025436;28;20040;-72
2022/06/24 10:43:42;;;;;;;4.30;1.52;;;26.80;99.90;;;;;;5027389;28;20040;-72
2022/06/24 10:46:11;;;;;;;5.80;1.63;;;27.30;99.90;;;;;;5017762;28;20022;-72
2022/06/24 10:48:51;;;;;;;4.43;1.30;;;27.60;99.90;;;;;;5008944;28;20319;-73
2022/06/24 10:51:18;;;;;;;3.33;1.38;;;27.80;98.70;;;;;;5025134;28;20076;-73
2022/06/24 10:54:02;;;;;;;4.00;1.40;;;27.80;98.20;;;;;;5016122;28;20021;-73
2022/06/24 10:56:47;;;;;;;6.38;1.40;;;27.50;97.60;;;;;;5008987;28;20033;-73
2022/06/24 10:59:16;;;;;;;4.15;1.40;;;27.30;98.90;;;;;;5016222;28;20121;-73
2022/06/24 11:01:45;;;;;;;3.10;1.45;;;27.00;97.90;;;;;;5025697;28;20026;-72
2022/06/24 11:04:24;;;;;;;3.60;1.45;;;26.70;98.30;;;;;;5013769;28;20441;-73
2022/06/24 11:07:11;;;;;;;7.00;1.63;;;26.40;99.20;;;;;;5024612;28;20025;-73
2022/06/24 11:09:37;;;;;;;4.43;1.35;;;26.10;99.60;;;;;;5024846;28;20156;-74
2022/06/24 11:12:27;;;;;;;6.15;1.50;;;26.00;99.80;;;;;;5019358;28;20375;-74
2022/06/24 11:14:53;;;;;;;4.45;1.30;;;25.90;99.90;;;;;;5016865;28;20030;-74
2022/06/24 11:17:26;;;;;;;3.65;1.52;;;25.90;99.90;;;;;;5024904;28;20182;-74
2022/06/24 11:19:52;;;;;;;4.45;1.35;;;25.80;99.90;;;;;;5022946;28;20520;-75
2022/06/24 11:22:19;;;;;;;4.45;1.30;;;26.00;99.90;;;;;;5020465;28;20090;-76
2022/06/24 11:24:47;;;;;;;1.90;0.98;;;26.40;99.90;;;;;;5019528;28;20022;-76
2022/06/24 11:27:13;;;;;;;3.72;1.10;;;27.00;98.10;;;;;;5024184;28;20056;-75
2022/06/24 11:29:56;;;;;;;5.00;1.10;;;27.10;96.80;;;;;;5024232;28;20049;-75
2022/06/24 11:32:22;;;;;;;;;;;27.00;97.20;;;;;;5024317;28;20029;-75
2022/06/24 11:34:48;;;;;;;2.28;1.10;;;26.90;96.70;;;;;;5016613;28;19967;-75
2022/06/24 11:37:23;;;;;;;4.93;1.13;;;26.70;97.00;;;;;;5016759;28;20092;-76
2022/06/24 11:39:56;;;;;;;4.20;1.30;;;26.60;97.00;;;;;;5020895;28;20113;-75
2022/06/24 11:42:22;;;;;;;5.10;1.45;;;26.40;98.10;;;;;;5007868;28;20033;-75
2022/06/24 11:44:51;;;;;;;4.28;1.30;;;26.20;98.40;;;;;;5019358;28;20512;-75
2022/06/24 11:47:28;;;;;;;3.30;1.40;;;26.00;99.00;;;;;;5018570;28;20453;-75
2022/06/24 11:49:54;;;;;;;3.25;1.20;;;25.80;99.50;;;;;;5022476;28;20068;-75
2022/06/24 11:52:19;;;;;;;2.22;1.10;;;25.60;99.90;;;;;;5023318;28;20057;-75
2022/06/24 11:54:45;;;;;;;4.70;1.50;;;25.50;99.90;;;;;;5024045;28;20087;-75
2022/06/24 11:57:12;;;;;;;6.00;1.73;;;25.50;99.90;;;;;;5021946;28;20064;-75
2022/06/24 11:59:37;;;;;;;2.20;1.17;;;25.40;99.90;;;;;;5021364;28;20188;-75
2022/06/24 12:02:04;;;;;;;3.30;1.10;;;25.30;99.90;;;;;;5019578;28;20525;-75
2022/06/24 12:04:30;;;;;;;6.65;1.20;;;25.30;99.90;;;;;;5013800;28;20029;-74
2022/06/24 12:06:56;;;;;;;5.13;1.45;;;25.20;99.90;;;;;;5013615;28;20279;-74
2022/06/24 12:09:22;;;;;;;4.28;1.50;;;25.10;99.90;;;;;;5019079;28;20044;-74
2022/06/24 12:11:49;;;;;;;4.88;1.60;;;25.10;99.90;;;;;;5024585;28;20033;-75
2022/06/24 12:14:16;;;;;;;4.88;1.60;;;25.00;99.90;;;;;;5010054;28;20030;-76
2022/06/24 12:17:06;;;;;;;1.30;1.17;;;25.00;99.90;;;;;;5019315;28;20022;-75
2022/06/24 12:19:33;;;;;;;2.20;1.20;;;25.00;99.90;;;;;;5019688;28;20033;-74
2022/06/24 12:22:08;;;;;;;5.03;1.30;;;24.80;99.90;;;;;;5017510;28;20362;-74
2022/06/24 12:24:34;;;;;;;4.30;1.27;;;24.70;99.90;;;;;;5015827;28;20040;-75
2022/06/24 12:27:03;;;;;;;2.78;1.25;;;24.70;99.90;;;;;;5013246;28;20022;-76
2022/06/24 12:29:41;;;;;;;4.40;1.20;;;24.70;99.90;;;;;;5014157;28;20033;-75
2022/06/24 12:32:08;;;;;;;2.78;1.17;;;24.70;99.90;;;;;;5011820;28;20402;-74
2022/06/24 12:34:35;;;;;;;2.22;1.10;;;24.80;99.90;;;;;;5018031;28;20615;-74
2022/06/24 12:37:06;;;;;;;5.28;1.27;;;24.90;99.90;;;;;;5023494;28;20052;-74
2022/06/24 12:39:40;;;;;;;3.33;1.15;;;24.90;99.90;;;;;;5008798;28;20371;-76
2022/06/24 12:42:06;;;;;;;1.80;1.20;;;24.90;99.90;;;;;;5020631;28;20036;-75
2022/06/24 12:44:43;;;;;;;2.35;1.20;;;24.90;99.90;;;;;;5022843;28;20025;-75
2022/06/24 12:52:43;;;;;;;2.47;0.95;;;24.40;99.90;;;;;;5029805;28;20040;-74
2022/06/24 12:55:12;;;;;;;2.05;0.82;;;24.40;99.90;;;;;;5026575;28;20033;-75
2022/06/24 12:57:39;;;;;;;2.15;0.90;;;24.30;99.90;;;;;;5023328;28;20117;-76
2022/06/24 13:00:10;;;;;;;1.25;0.85;;;24.30;99.90;;;;;;5009706;28;20038;-74
2022/06/24 13:02:46;;;;;;;3.88;0.90;;;24.30;99.90;;;;;;5022669;28;20021;-74
2022/06/24 13:05:13;;;;;;;1.63;1.00;;;24.20;99.90;;;;;;4669603;28;10000537;-76
2022/06/24 13:07:39;;;;;;;2.60;1.10;;;24.30;99.90;;;;;;5012774;28;20033;-74
2022/06/24 13:10:06;;;;;;;2.78;1.08;;;24.30;99.90;;;;;;5022408;28;20029;-74
2022/06/24 13:12:33;;;;;;;2.00;1.10;;;24.30;99.90;;;;;;5025340;28;20045;-76